Time;durP1;ratioP1;P1;durP2;ratioP2;P2;SDS_P1;SDS_P2;PMS_P1;PMS_P2;Temp;Humidity;BMP_temperature;BMP_pressure;BME280_temperature;BME280_humidity;BME280_pressure;Samples;Min_cycle;Max_cycle;Signal;HPM_P1;HPM_P2
2022/01/21 00:00:17;;;;;;;8.43;4.40;;;;;;;;;;5133745;28;20447;-70
2022/01/21 00:02:46;;;;;;;8.03;2.87;;;;;;;;;;5133539;27;20520;-69
2022/01/21 00:05:13;;;;;;;5.67;2.43;;;;;;;;;;5133321;28;20973;-69
2022/01/21 00:07:40;;;;;;;8.10;4.20;;;;;;;;;;5133328;28;20459;-69
2022/01/21 00:10:08;;;;;;;6.37;3.20;;;;;;;;;;5133386;28;20468;-69
2022/01/21 00:12:36;;;;;;;8.43;3.50;;;;;;;;;;5133363;28;20572;-69
2022/01/21 00:15:04;;;;;;;11.00;4.20;;;;;;;;;;5133424;28;20891;-70
2022/01/21 00:17:31;;;;;;;6.00;3.83;;;;;;;;;;5133240;28;20463;-69
2022/01/21 00:30:58;;;;;;;6.40;3.83;;;;;;;;;;5133249;27;20445;-70
2022/01/21 00:33:25;;;;;;;8.13;4.33;;;;;;;;;;5133194;27;20464;-70
2022/01/21 00:35:54;;;;;;;3.17;2.63;;;;;;;;;;5132638;27;20862;-70
2022/01/21 00:38:22;;;;;;;7.13;3.90;;;;;;;;;;5133407;27;20455;-69
2022/01/21 00:40:50;;;;;;;6.00;2.70;;;;;;;;;;5136961;27;20463;-68
2022/01/21 00:43:21;;;;;;;4.10;2.90;;;;;;;;;;5137016;27;20451;-69
2022/01/21 00:45:49;;;;;;;11.43;3.43;;;;;;;;;;5136655;27;20529;-69
2022/01/21 00:48:17;;;;;;;5.20;3.67;;;;;;;;;;5136861;27;20481;-69
2022/01/21 00:50:44;;;;;;;9.77;3.17;;;;;;;;;;5136747;27;20488;-70
2022/01/21 00:53:12;;;;;;;6.30;3.97;;;;;;;;;;5136790;27;20448;-69
2022/01/21 00:55:39;;;;;;;7.00;2.70;;;;;;;;;;5136269;27;20499;-70
2022/01/21 00:58:07;;;;;;;5.97;3.33;;;;;;;;;;5136670;27;20827;-70
2022/01/21 01:00:36;;;;;;;6.00;2.83;;;;;;;;;;5136671;27;20949;-69
2022/01/21 01:03:03;;;;;;;7.60;3.27;;;;;;;;;;5136588;27;20456;-70
2022/01/21 01:05:30;;;;;;;10.87;2.73;;;;;;;;;;5136301;27;20996;-70
2022/01/21 01:07:59;;;;;;;4.80;2.57;;;;;;;;;;5136469;27;20444;-69
2022/01/21 01:10:41;;;;;;;13.47;3.50;;;;;;;;;;5136389;27;20492;-69
2022/01/21 01:21:23;;;;;;;6.13;3.00;;;;;;;;;;5136454;27;20509;-69
2022/01/21 01:24:03;;;;;;;5.67;3.43;;;;;;;;;;5136180;27;20955;-69
2022/01/21 01:29:18;;;;;;;7.63;2.67;;;;;;;;;;5136477;27;20474;-69
2022/01/21 01:31:45;;;;;;;6.70;3.40;;;;;;;;;;5135978;27;20465;-69
2022/01/21 01:34:12;;;;;;;6.80;3.37;;;;;;;;;;5136024;27;20806;-69
2022/01/21 01:36:42;;;;;;;7.23;2.10;;;;;;;;;;5135567;27;20552;-69
2022/01/21 01:39:16;;;;;;;3.60;3.20;;;;;;;;;;5136050;27;20449;-69
2022/01/21 01:41:51;;;;;;;14.43;3.57;;;;;;;;;;5136010;27;21010;-70
2022/01/21 01:50:02;;;;;;;7.70;3.20;;;;;;;;;;5072697;28;20423;-70
2022/01/21 01:52:29;;;;;;;6.90;2.77;;;;;;;;;;5108081;27;20452;-70
2022/01/21 01:54:57;;;;;;;5.57;2.93;;;;;;;;;;5135406;27;20448;-69
2022/01/21 01:57:25;;;;;;;4.93;3.27;;;;;;;;;;5135675;27;20451;-69
2022/01/21 01:59:52;;;;;;;6.17;3.67;;;;;;;;;;5135562;27;20453;-69
2022/01/21 02:02:20;;;;;;;9.53;3.03;;;;;;;;;;5135463;27;20452;-69
2022/01/21 02:04:49;;;;;;;6.37;2.40;;;;;;;;;;5135153;27;20456;-69
2022/01/21 02:07:16;;;;;;;10.83;3.00;;;;;;;;;;5135771;27;20618;-69
2022/01/21 02:09:44;;;;;;;4.43;2.90;;;;;;;;;;5135385;27;20444;-69
2022/01/21 02:12:11;;;;;;;4.67;3.77;;;;;;;;;;5135538;27;20941;-69
2022/01/21 02:14:48;;;;;;;3.10;2.40;;;;;;;;;;5134981;27;20449;-70
2022/01/21 02:21:27;;;;;;;5.77;3.00;;;;;;;;;;5135039;27;20484;-70
2022/01/21 02:22:51;;;;;;;5.43;3.10;;;;;;;;;;5135238;27;20522;-69
2022/01/21 02:25:19;;;;;;;10.83;4.93;;;;;;;;;;5134322;27;20555;-70
2022/01/21 02:27:46;;;;;;;8.23;5.07;;;;;;;;;;5135127;27;20456;-69
2022/01/21 02:30:18;;;;;;;7.30;3.83;;;;;;;;;;5135048;27;20548;-69
2022/01/21 02:32:45;;;;;;;7.10;3.60;;;;;;;;;;5134853;27;20970;-70
2022/01/21 02:35:13;;;;;;;7.03;3.73;;;;;;;;;;5134705;27;20469;-70
2022/01/21 02:37:40;;;;;;;4.23;1.80;;;;;;;;;;5134571;27;20445;-70
2022/01/21 02:40:10;;;;;;;4.43;2.80;;;;;;;;;;5134819;27;20459;-70
2022/01/21 02:42:37;;;;;;;4.50;1.93;;;;;;;;;;5134576;27;20444;-69
2022/01/21 02:45:04;;;;;;;10.50;2.03;;;;;;;;;;5134496;27;20444;-69
2022/01/21 02:47:32;;;;;;;3.17;1.90;;;;;;;;;;5134704;27;20444;-69
2022/01/21 02:49:59;;;;;;;3.00;1.70;;;;;;;;;;5134757;27;20969;-69
2022/01/21 02:52:29;;;;;;;3.03;1.47;;;;;;;;;;5134570;27;20436;-70
2022/01/21 02:54:57;;;;;;;5.97;1.90;;;;;;;;;;5134221;27;20865;-69
2022/01/21 02:57:25;;;;;;;5.10;2.13;;;;;;;;;;5134525;27;20511;-69
2022/01/21 02:59:52;;;;;;;4.60;2.37;;;;;;;;;;5134468;27;20453;-69
2022/01/21 03:02:19;;;;;;;3.17;2.23;;;;;;;;;;5133910;27;20455;-69
2022/01/21 03:04:55;;;;;;;13.47;3.00;;;;;;;;;;5134040;27;20448;-70
2022/01/21 03:07:22;;;;;;;8.70;2.40;;;;;;;;;;5134499;27;20444;-69
2022/01/21 03:09:49;;;;;;;4.80;2.23;;;;;;;;;;5134432;27;20499;-69
2022/01/21 03:12:16;;;;;;;4.30;2.70;;;;;;;;;;5134426;27;20944;-69
2022/01/21 03:14:45;;;;;;;5.27;2.60;;;;;;;;;;5133965;27;20451;-70
2022/01/21 03:17:12;;;;;;;5.43;2.90;;;;;;;;;;5134055;27;20497;-70
2022/01/21 03:19:39;;;;;;;8.00;3.00;;;;;;;;;;5134105;27;20451;-69
2022/01/21 03:22:06;;;;;;;5.97;2.83;;;;;;;;;;5134441;27;20463;-69
2022/01/21 03:24:33;;;;;;;2.00;1.70;;;;;;;;;;5133512;27;20463;-71
2022/01/21 03:27:00;;;;;;;4.30;1.80;;;;;;;;;;5134114;27;20461;-69
2022/01/21 03:29:28;;;;;;;3.97;1.93;;;;;;;;;;5134111;27;20444;-70
2022/01/21 03:31:56;;;;;;;7.10;2.47;;;;;;;;;;5133777;27;20453;-70
2022/01/21 03:34:23;;;;;;;2.30;1.80;;;;;;;;;;5133808;28;20448;-70
2022/01/21 03:36:53;;;;;;;5.43;2.87;;;;;;;;;;5133591;28;20499;-69
2022/01/21 03:39:20;;;;;;;4.20;2.07;;;;;;;;;;5134101;28;20468;-70
2022/01/21 03:41:47;;;;;;;5.40;1.70;;;;;;;;;;5133787;28;20819;-69
2022/01/21 03:44:14;;;;;;;14.10;4.50;;;;;;;;;;5133614;27;20448;-69
2022/01/21 03:46:42;;;;;;;4.93;2.70;;;;;;;;;;5133604;27;20483;-70
2022/01/21 03:49:10;;;;;;;3.33;2.73;;;;;;;;;;5133916;28;20448;-69
2022/01/21 03:51:38;;;;;;;2.30;2.03;;;;;;;;;;5133849;27;20455;-70
2022/01/21 03:54:05;;;;;;;7.47;2.30;;;;;;;;;;5133669;27;20452;-69
2022/01/21 03:56:32;;;;;;;4.53;2.10;;;;;;;;;;5133696;28;20480;-70
2022/01/21 03:58:59;;;;;;;6.10;3.07;;;;;;;;;;5133956;28;20441;-70
2022/01/21 04:01:28;;;;;;;3.00;2.73;;;;;;;;;;5133782;28;20808;-70
2022/01/21 04:03:55;;;;;;;5.13;2.37;;;;;;;;;;5133682;27;20489;-70
2022/01/21 04:06:24;;;;;;;5.47;2.77;;;;;;;;;;5133667;28;20476;-69
2022/01/21 04:08:51;;;;;;;5.60;2.53;;;;;;;;;;5133736;28;20998;-69
2022/01/21 04:11:18;;;;;;;2.40;1.80;;;;;;;;;;5133697;28;20445;-69
2022/01/21 04:13:46;;;;;;;9.93;2.10;;;;;;;;;;5134223;27;20457;-69
2022/01/21 04:16:13;;;;;;;7.70;3.20;;;;;;;;;;5137562;27;20622;-70
2022/01/21 04:18:40;;;;;;;3.80;1.93;;;;;;;;;;5137503;27;20459;-70
2022/01/21 04:21:07;;;;;;;3.70;2.40;;;;;;;;;;5137634;27;20453;-69
2022/01/21 04:23:36;;;;;;;6.67;2.40;;;;;;;;;;5137354;27;20440;-70
2022/01/21 04:26:03;;;;;;;2.50;1.80;;;;;;;;;;5137000;27;20538;-71
2022/01/21 04:28:30;;;;;;;4.63;2.47;;;;;;;;;;5137380;27;20460;-70
2022/01/21 04:30:58;;;;;;;8.27;2.37;;;;;;;;;;5137326;27;20472;-69
2022/01/21 04:33:26;;;;;;;4.43;1.57;;;;;;;;;;5137452;27;20448;-70
2022/01/21 04:35:53;;;;;;;8.23;2.57;;;;;;;;;;5136877;27;20475;-70
2022/01/21 04:38:22;;;;;;;4.50;1.30;;;;;;;;;;5137305;27;20452;-69
2022/01/21 04:40:57;;;;;;;2.70;1.67;;;;;;;;;;5136930;27;20543;-70
2022/01/21 04:48:59;;;;;;;5.93;1.37;;;;;;;;;;5078718;27;20972;-70
2022/01/21 04:51:29;;;;;;;1.83;1.40;;;;;;;;;;5136890;27;20444;-70
2022/01/21 04:53:56;;;;;;;3.47;1.50;;;;;;;;;;5136768;27;20990;-69
2022/01/21 04:56:24;;;;;;;2.00;1.10;;;;;;;;;;5136741;27;20847;-69
2022/01/21 04:58:53;;;;;;;1.50;1.30;;;;;;;;;;5136778;27;20440;-69
2022/01/21 05:01:20;;;;;;;4.60;1.30;;;;;;;;;;5136781;27;20470;-69
2022/01/21 05:03:47;;;;;;;2.53;1.17;;;;;;;;;;5136516;27;20944;-69
2022/01/21 05:06:14;;;;;;;2.60;1.10;;;;;;;;;;5136672;27;20922;-69
2022/01/21 05:08:46;;;;;;;4.50;1.40;;;;;;;;;;5136520;27;20822;-69
2022/01/21 05:11:16;;;;;;;5.20;1.70;;;;;;;;;;5136818;27;20491;-69
2022/01/21 05:13:53;;;;;;;8.53;4.37;;;;;;;;;;5136473;27;20860;-69
2022/01/21 05:16:32;;;;;;;3.63;2.03;;;;;;;;;;5136369;27;20480;-70
2022/01/21 05:19:03;;;;;;;6.73;1.37;;;;;;;;;;5136570;27;20433;-69
2022/01/21 05:21:30;;;;;;;4.07;1.90;;;;;;;;;;5136273;27;20485;-70
2022/01/21 05:23:57;;;;;;;4.80;2.00;;;;;;;;;;5136001;27;20918;-70
2022/01/21 05:26:25;;;;;;;6.13;1.60;;;;;;;;;;5135849;27;20472;-70
2022/01/21 05:28:53;;;;;;;12.63;1.73;;;;;;;;;;5136304;27;20456;-70
2022/01/21 05:31:20;;;;;;;13.67;2.53;;;;;;;;;;5136164;27;20457;-69
2022/01/21 05:33:47;;;;;;;6.70;1.93;;;;;;;;;;5135973;27;20449;-70
2022/01/21 05:36:14;;;;;;;11.93;2.20;;;;;;;;;;5135750;27;20887;-69
2022/01/21 05:38:41;;;;;;;3.87;2.03;;;;;;;;;;5135940;27;20456;-70
2022/01/21 05:41:09;;;;;;;5.27;1.60;;;;;;;;;;5135832;27;20452;-70
2022/01/21 05:43:37;;;;;;;5.23;2.73;;;;;;;;;;5135769;27;20440;-70
2022/01/21 05:46:28;;;;;;;8.83;1.80;;;;;;;;;;5135928;27;20927;-69
2022/01/21 05:48:55;;;;;;;10.00;2.57;;;;;;;;;;5135983;27;20959;-69
2022/01/21 05:51:23;;;;;;;8.60;2.57;;;;;;;;;;5135676;27;20444;-70
2022/01/21 05:53:50;;;;;;;7.30;1.90;;;;;;;;;;5135412;27;20537;-70
2022/01/21 05:56:17;;;;;;;8.20;1.80;;;;;;;;;;5135599;27;20476;-69
2022/01/21 05:58:44;;;;;;;6.13;2.40;;;;;;;;;;5135645;27;20455;-70
2022/01/21 06:01:13;;;;;;;7.30;1.90;;;;;;;;;;5135731;27;20440;-69
2022/01/21 06:03:40;;;;;;;5.13;1.90;;;;;;;;;;5135422;27;20484;-70
2022/01/21 06:06:08;;;;;;;5.80;2.00;;;;;;;;;;5135492;27;20467;-70
2022/01/21 06:08:36;;;;;;;17.03;2.93;;;;;;;;;;5135405;27;20449;-70
2022/01/21 06:11:03;;;;;;;8.90;2.77;;;;;;;;;;5135716;27;20464;-69
2022/01/21 06:13:30;;;;;;;2.13;1.53;;;;;;;;;;5135052;27;20455;-69
2022/01/21 06:15:59;;;;;;;9.23;2.00;;;;;;;;;;5135310;27;20457;-69
2022/01/21 06:18:27;;;;;;;9.30;1.63;;;;;;;;;;5135456;27;20488;-69
2022/01/21 06:20:54;;;;;;;3.40;3.10;;;;;;;;;;5135364;27;20945;-70
2022/01/21 06:23:22;;;;;;;4.00;2.30;;;;;;;;;;5135281;27;20942;-71
2022/01/21 06:25:49;;;;;;;7.07;1.73;;;;;;;;;;5134620;27;20479;-69
2022/01/21 06:28:16;;;;;;;9.80;2.97;;;;;;;;;;5135146;27;20954;-69
2022/01/21 06:30:43;;;;;;;4.27;2.20;;;;;;;;;;5135091;27;20805;-69
2022/01/21 06:33:10;;;;;;;7.50;1.90;;;;;;;;;;5134893;27;20441;-71
2022/01/21 06:35:38;;;;;;;2.80;1.70;;;;;;;;;;5134479;27;20873;-70
2022/01/21 06:38:06;;;;;;;4.20;1.80;;;;;;;;;;5134392;27;20488;-70
2022/01/21 06:40:33;;;;;;;4.00;1.93;;;;;;;;;;5134990;27;20456;-69
2022/01/21 06:43:02;;;;;;;3.20;2.30;;;;;;;;;;5134930;27;20455;-69
2022/01/21 06:45:29;;;;;;;2.50;2.00;;;;;;;;;;5134558;27;21039;-70
2022/01/21 06:47:58;;;;;;;3.57;2.33;;;;;;;;;;5134652;27;20456;-69
2022/01/21 06:50:25;;;;;;;3.20;1.87;;;;;;;;;;5134682;27;20540;-69
2022/01/21 06:52:53;;;;;;;5.07;2.00;;;;;;;;;;5134341;27;20925;-70
2022/01/21 06:55:20;;;;;;;5.57;2.93;;;;;;;;;;5134285;27;20465;-70
2022/01/21 06:57:48;;;;;;;6.10;2.60;;;;;;;;;;5134399;27;20499;-70
2022/01/21 07:00:19;;;;;;;13.47;3.17;;;;;;;;;;5134769;27;20444;-69
2022/01/21 07:02:46;;;;;;;7.77;2.87;;;;;;;;;;5134510;27;20652;-69
2022/01/21 07:05:13;;;;;;;7.73;2.87;;;;;;;;;;5134200;27;20981;-69
2022/01/21 07:07:40;;;;;;;6.17;2.53;;;;;;;;;;5134374;27;20448;-70
2022/01/21 07:10:11;;;;;;;3.40;1.90;;;;;;;;;;5134515;27;20436;-69
2022/01/21 07:12:38;;;;;;;4.07;3.20;;;;;;;;;;5134266;27;20456;-70
2022/01/21 07:15:06;;;;;;;5.87;2.63;;;;;;;;;;5133998;27;20811;-70
2022/01/21 07:17:33;;;;;;;3.37;2.43;;;;;;;;;;5134236;27;20495;-69
2022/01/21 07:20:00;;;;;;;5.53;2.93;;;;;;;;;;5134266;27;20441;-69
2022/01/21 07:22:27;;;;;;;14.60;5.13;;;;;;;;;;5134329;27;20806;-70
2022/01/21 07:24:54;;;;;;;5.40;3.17;;;;;;;;;;5133621;27;20452;-69
2022/01/21 07:27:23;;;;;;;16.10;2.73;;;;;;;;;;5134174;27;20467;-70
2022/01/21 07:29:50;;;;;;;5.33;2.50;;;;;;;;;;5133986;27;20941;-69
2022/01/21 07:32:17;;;;;;;7.03;1.93;;;;;;;;;;5133977;27;20456;-69
2022/01/21 07:34:44;;;;;;;5.63;2.43;;;;;;;;;;5133790;27;20455;-70
2022/01/21 07:37:11;;;;;;;6.30;2.80;;;;;;;;;;5133754;27;20488;-69
2022/01/21 07:39:38;;;;;;;7.30;2.70;;;;;;;;;;5133892;27;20453;-70
2022/01/21 07:42:06;;;;;;;9.50;1.93;;;;;;;;;;5134022;28;20453;-70
2022/01/21 07:44:34;;;;;;;10.20;2.67;;;;;;;;;;5133663;28;20813;-69
2022/01/21 07:47:02;;;;;;;5.13;3.27;;;;;;;;;;5133786;27;20476;-69
2022/01/21 07:49:29;;;;;;;7.30;2.50;;;;;;;;;;5137921;27;20815;-70
2022/01/21 07:51:56;;;;;;;8.70;2.77;;;;;;;;;;5138064;27;20448;-70
2022/01/21 07:54:23;;;;;;;11.83;3.97;;;;;;;;;;5137909;27;20449;-70
2022/01/21 07:56:50;;;;;;;9.63;3.30;;;;;;;;;;5137839;27;20960;-71
2022/01/21 07:59:17;;;;;;;5.50;2.57;;;;;;;;;;5138088;27;20443;-70
2022/01/21 08:01:46;;;;;;;5.93;2.10;;;;;;;;;;5137856;27;20822;-69
2022/01/21 08:04:13;;;;;;;4.30;2.60;;;;;;;;;;5137666;27;20448;-70
2022/01/21 08:06:40;;;;;;;10.03;3.20;;;;;;;;;;5137819;27;20487;-70
2022/01/21 08:09:08;;;;;;;3.27;2.07;;;;;;;;;;5137795;27;20455;-70
2022/01/21 08:11:35;;;;;;;3.77;2.37;;;;;;;;;;5137739;27;20505;-69
2022/01/21 08:14:02;;;;;;;7.10;3.00;;;;;;;;;;5137514;27;20453;-70
2022/01/21 08:16:29;;;;;;;10.93;3.03;;;;;;;;;;5137575;27;20467;-69
2022/01/21 08:18:59;;;;;;;8.97;2.87;;;;;;;;;;5137462;27;20490;-69
2022/01/21 08:21:26;;;;;;;4.90;2.90;;;;;;;;;;5137499;27;20955;-70
2022/01/21 08:23:55;;;;;;;5.90;3.47;;;;;;;;;;5137079;27;20812;-74
2022/01/21 08:26:23;;;;;;;6.33;3.00;;;;;;;;;;5137325;27;20480;-70
2022/01/21 08:28:50;;;;;;;5.23;2.07;;;;;;;;;;5137495;27;20448;-70
2022/01/21 08:31:17;;;;;;;3.80;2.90;;;;;;;;;;5137060;27;20461;-69
2022/01/21 08:33:45;;;;;;;8.20;2.70;;;;;;;;;;5137135;27;20934;-71
2022/01/21 08:36:13;;;;;;;6.90;2.47;;;;;;;;;;5136835;27;20468;-70
2022/01/21 08:38:41;;;;;;;4.30;2.37;;;;;;;;;;5137109;27;20480;-70
2022/01/21 08:41:08;;;;;;;7.33;3.00;;;;;;;;;;5137467;27;20926;-70
2022/01/21 08:43:36;;;;;;;6.50;2.80;;;;;;;;;;5136919;27;20452;-70
2022/01/21 08:46:04;;;;;;;4.40;2.03;;;;;;;;;;5137071;27;20500;-70
2022/01/21 08:48:31;;;;;;;8.33;1.63;;;;;;;;;;5137009;27;20448;-70
2022/01/21 08:51:00;;;;;;;4.20;2.60;;;;;;;;;;5137291;27;20910;-70
2022/01/21 08:53:38;;;;;;;4.73;2.20;;;;;;;;;;5136903;27;20463;-71
2022/01/21 08:56:07;;;;;;;4.10;1.93;;;;;;;;;;5137003;27;20508;-69
2022/01/21 08:58:34;;;;;;;4.47;2.10;;;;;;;;;;5136809;27;20476;-70
2022/01/21 09:01:01;;;;;;;5.00;1.90;;;;;;;;;;5135900;27;20449;-71
2022/01/21 09:03:28;;;;;;;3.70;1.63;;;;;;;;;;5136415;27;20459;-71
2022/01/21 09:05:55;;;;;;;2.87;1.70;;;;;;;;;;5136634;27;20476;-70
2022/01/21 09:08:24;;;;;;;3.70;2.20;;;;;;;;;;5136780;27;20448;-70
2022/01/21 09:10:52;;;;;;;6.57;2.07;;;;;;;;;;5136581;27;20467;-70
2022/01/21 09:13:20;;;;;;;2.70;1.60;;;;;;;;;;5136485;27;20457;-70
2022/01/21 09:15:48;;;;;;;5.47;2.00;;;;;;;;;;5136128;27;20472;-71
2022/01/21 09:18:18;;;;;;;3.93;2.03;;;;;;;;;;5136609;27;20791;-71
2022/01/21 09:20:46;;;;;;;5.10;1.97;;;;;;;;;;5136514;27;20456;-71
2022/01/21 09:23:13;;;;;;;5.07;2.40;;;;;;;;;;5136496;27;20444;-70
2022/01/21 09:25:40;;;;;;;12.40;2.17;;;;;;;;;;5135683;27;20826;-71
2022/01/21 09:28:08;;;;;;;8.10;1.93;;;;;;;;;;5136498;27;20910;-71
2022/01/21 09:30:36;;;;;;;5.93;2.33;;;;;;;;;;5136053;27;20948;-72
2022/01/21 09:33:03;;;;;;;7.67;2.97;;;;;;;;;;5136271;27;20823;-71
2022/01/21 09:35:30;;;;;;;9.10;2.90;;;;;;;;;;5135729;27;20484;-72
2022/01/21 09:37:57;;;;;;;3.07;2.60;;;;;;;;;;5136209;27;21011;-71
2022/01/21 09:40:29;;;;;;;6.77;2.40;;;;;;;;;;5136196;27;20464;-70
2022/01/21 09:42:56;;;;;;;4.47;1.90;;;;;;;;;;5136059;27;20491;-71
2022/01/21 09:45:27;;;;;;;2.50;1.60;;;;;;;;;;5135738;27;20473;-71
2022/01/21 09:47:55;;;;;;;5.07;2.37;;;;;;;;;;5136079;27;20976;-70
2022/01/21 09:50:23;;;;;;;2.97;1.60;;;;;;;;;;5136033;27;20584;-71
2022/01/21 09:52:51;;;;;;;5.57;1.80;;;;;;;;;;5134786;27;20469;-70
2022/01/21 09:55:20;;;;;;;3.30;2.13;;;;;;;;;;5149736;27;20838;-71
2022/01/21 09:57:48;;;;;;;5.10;1.80;;;;;;;;;;5154988;27;20487;-71
2022/01/21 10:00:16;;;;;;;3.20;2.10;;;;;;;;;;5155088;27;20451;-71
2022/01/21 10:02:45;;;;;;;6.93;2.50;;;;;;;;;;5154135;27;20986;-72
2022/01/21 10:05:13;;;;;;;6.87;2.20;;;;;;;;;;5154660;27;20992;-72
2022/01/21 10:07:41;;;;;;;5.70;2.37;;;;;;;;;;5154591;27;20448;-71
2022/01/21 10:10:09;;;;;;;6.77;2.17;;;;;;;;;;5154711;27;20476;-71
2022/01/21 10:12:38;;;;;;;5.00;2.33;;;;;;;;;;5153353;27;20955;-71
2022/01/21 10:15:06;;;;;;;5.00;3.40;;;;;;;;;;5154624;27;20806;-71
2022/01/21 10:17:33;;;;;;;5.50;2.53;;;;;;;;;;5154129;27;20451;-71
2022/01/21 10:20:14;;;;;;;3.10;2.27;;;;;;;;;;5154729;27;20444;-71
2022/01/21 10:22:56;;;;;;;7.33;2.47;;;;;;;;;;5154404;27;20443;-71
2022/01/21 10:25:23;;;;;;;6.47;2.60;;;;;;;;;;5153863;27;20468;-71
2022/01/21 10:27:51;;;;;;;2.60;1.80;;;;;;;;;;5154397;27;20448;-71
2022/01/21 10:30:21;;;;;;;4.00;2.33;;;;;;;;;;5154357;27;20454;-70
2022/01/21 10:32:48;;;;;;;5.40;2.33;;;;;;;;;;5155351;27;20459;-70
2022/01/21 10:35:25;;;;;;;7.23;3.43;;;;;;;;;;5155153;27;20475;-70
2022/01/21 10:37:52;;;;;;;3.23;1.73;;;;;;;;;;5155446;27;20530;-70
2022/01/21 10:40:21;;;;;;;9.90;2.33;;;;;;;;;;5155714;27;20451;-70
2022/01/21 10:42:48;;;;;;;4.53;2.20;;;;;;;;;;5155494;27;20444;-70
2022/01/21 10:45:15;;;;;;;4.50;2.00;;;;;;;;;;5155256;27;20467;-71
2022/01/21 10:47:48;;;;;;;3.90;1.93;;;;;;;;;;5155314;27;20448;-70
2022/01/21 10:50:17;;;;;;;20.07;2.77;;;;;;;;;;5155469;27;20452;-70
2022/01/21 10:52:50;;;;;;;8.53;1.90;;;;;;;;;;5155411;27;20451;-69
2022/01/21 10:55:27;;;;;;;7.47;2.37;;;;;;;;;;5155234;27;20562;-70
2022/01/21 10:58:04;;;;;;;5.37;2.47;;;;;;;;;;5155110;27;20531;-71
2022/01/21 11:00:32;;;;;;;5.43;2.70;;;;;;;;;;5155164;27;20435;-71
2022/01/21 11:03:09;;;;;;;11.20;2.27;;;;;;;;;;5155171;27;20452;-69
2022/01/21 11:05:40;;;;;;;3.67;2.43;;;;;;;;;;5154688;27;20471;-70
2022/01/21 11:08:10;;;;;;;5.67;2.80;;;;;;;;;;5155089;27;20439;-70
2022/01/21 11:10:39;;;;;;;4.20;2.63;;;;;;;;;;5154885;27;20443;-70
2022/01/21 11:13:21;;;;;;;5.33;3.50;;;;;;;;;;5154980;27;20439;-70
2022/01/21 11:15:49;;;;;;;7.20;2.17;;;;;;;;;;5154551;27;21002;-70
2022/01/21 11:18:19;;;;;;;4.60;2.30;;;;;;;;;;5154925;27;20476;-70
2022/01/21 11:20:49;;;;;;;13.73;3.17;;;;;;;;;;5154836;27;20495;-71
2022/01/21 11:23:20;;;;;;;5.60;4.00;;;;;;;;;;5154494;27;20448;-70
2022/01/21 11:25:49;;;;;;;10.77;3.03;;;;;;;;;;5154318;27;20967;-70
2022/01/21 11:28:17;;;;;;;4.03;2.13;;;;;;;;;;5154846;27;20448;-69
2022/01/21 11:30:44;;;;;;;6.23;2.93;;;;;;;;;;5154436;27;20462;-70
2022/01/21 11:33:13;;;;;;;6.27;3.13;;;;;;;;;;5154778;27;20536;-70
2022/01/21 11:35:40;;;;;;;6.17;3.00;;;;;;;;;;5154328;27;20991;-70
2022/01/21 11:38:09;;;;;;;5.90;2.60;;;;;;;;;;5154733;27;20480;-69
2022/01/21 11:40:38;;;;;;;10.37;3.27;;;;;;;;;;5154458;27;20451;-71
2022/01/21 11:43:05;;;;;;;10.60;3.10;;;;;;;;;;5154663;27;20451;-69
2022/01/21 11:45:54;;;;;;;3.93;2.63;;;;;;;;;;5154236;27;20807;-72
2022/01/21 11:51:18;;;;;;;8.07;3.57;;;;;;;;;;5154766;27;20420;-70
2022/01/21 11:53:46;;;;;;;7.30;3.73;;;;;;;;;;5154400;27;20455;-70
2022/01/21 11:56:28;;;;;;;7.97;3.37;;;;;;;;;;5154312;27;20467;-69
2022/01/21 11:59:11;;;;;;;7.60;2.90;;;;;;;;;;5154531;27;20479;-69
2022/01/21 12:01:46;;;;;;;7.20;2.57;;;;;;;;;;5154469;27;20451;-70
2022/01/21 12:04:13;;;;;;;7.90;3.37;;;;;;;;;;5154398;27;21016;-69
2022/01/21 12:06:40;;;;;;;7.00;2.70;;;;;;;;;;5154294;27;20464;-69
2022/01/21 12:09:10;;;;;;;3.87;2.50;;;;;;;;;;5154534;27;20452;-69
2022/01/21 12:11:38;;;;;;;4.93;2.30;;;;;;;;;;5154433;27;20448;-70
2022/01/21 12:14:28;;;;;;;3.83;2.30;;;;;;;;;;5154392;27;20448;-69
2022/01/21 12:17:02;;;;;;;16.47;3.10;;;;;;;;;;5154217;27;21035;-69
2022/01/21 12:19:34;;;;;;;4.50;2.77;;;;;;;;;;5154271;27;20481;-69
2022/01/21 12:22:11;;;;;;;9.13;2.20;;;;;;;;;;5150704;27;20479;-70
2022/01/21 12:24:56;;;;;;;8.83;2.90;;;;;;;;;;5152600;27;20443;-70
2022/01/21 12:27:25;;;;;;;3.60;1.87;;;;;;;;;;5152526;27;20955;-70
2022/01/21 12:29:53;;;;;;;7.77;3.37;;;;;;;;;;5152981;27;20470;-69
2022/01/21 12:32:29;;;;;;;14.33;4.90;;;;;;;;;;5152696;27;20452;-70
2022/01/21 12:35:07;;;;;;;9.40;3.60;;;;;;;;;;5153943;27;20549;-69
2022/01/21 12:37:53;;;;;;;4.20;3.30;;;;;;;;;;5156696;27;20454;-70
2022/01/21 12:40:34;;;;;;;26.53;2.70;;;;;;;;;;5156524;27;20570;-71
2022/01/21 12:43:01;;;;;;;10.17;4.23;;;;;;;;;;5156480;27;20443;-71
2022/01/21 12:45:28;;;;;;;10.03;5.47;;;;;;;;;;5156366;27;20480;-71
2022/01/21 12:47:57;;;;;;;7.53;3.43;;;;;;;;;;5156616;27;20447;-70
2022/01/21 12:50:30;;;;;;;10.20;3.40;;;;;;;;;;5156398;27;20439;-71
2022/01/21 12:53:15;;;;;;;13.13;4.93;;;;;;;;;;5156440;27;20550;-70
2022/01/21 12:55:59;;;;;;;22.23;10.00;;;;;;;;;;5156005;27;20467;-70
2022/01/21 12:58:27;;;;;;;44.97;15.47;;;;;;;;;;5155470;27;20452;-70
2022/01/21 13:00:58;;;;;;;32.43;16.27;;;;;;;;;;5156759;27;20444;-70
2022/01/21 13:03:28;;;;;;;19.93;9.40;;;;;;;;;;5154037;27;20500;-70
2022/01/21 13:06:03;;;;;;;19.30;8.47;;;;;;;;;;5153924;27;20601;-70
2022/01/21 13:08:35;;;;;;;25.13;11.07;;;;;;;;;;5154615;27;20494;-70
2022/01/21 13:11:11;;;;;;;9.20;2.63;;;;;;;;;;5155928;27;20444;-70
2022/01/21 13:13:49;;;;;;;9.97;4.50;;;;;;;;;;5155858;27;20451;-70
2022/01/21 13:16:25;;;;;;;7.30;2.87;;;;;;;;;;5155984;27;20485;-70
2022/01/21 13:18:59;;;;;;;12.63;3.70;;;;;;;;;;5155868;27;20539;-70
2022/01/21 13:21:26;;;;;;;4.87;3.03;;;;;;;;;;5155844;27;20835;-70
2022/01/21 13:23:57;;;;;;;5.40;2.93;;;;;;;;;;5155399;27;20453;-69
2022/01/21 13:26:25;;;;;;;9.70;2.90;;;;;;;;;;5155826;27;20498;-70
2022/01/21 13:28:56;;;;;;;2.90;2.10;;;;;;;;;;5155552;27;20452;-71
2022/01/21 13:31:23;;;;;;;4.33;2.13;;;;;;;;;;5155688;27;20987;-70
2022/01/21 13:33:51;;;;;;;5.33;2.00;;;;;;;;;;5155382;27;20444;-70
2022/01/21 13:36:33;;;;;;;7.50;2.57;;;;;;;;;;5155469;27;20830;-71
2022/01/21 13:39:09;;;;;;;5.37;2.17;;;;;;;;;;5155134;27;20483;-70
2022/01/21 13:41:47;;;;;;;4.13;2.00;;;;;;;;;;5155485;27;20948;-71
2022/01/21 13:44:14;;;;;;;5.63;2.37;;;;;;;;;;5155674;27;21039;-69
2022/01/21 13:46:41;;;;;;;13.07;3.10;;;;;;;;;;5154965;27;20464;-71
2022/01/21 13:49:08;;;;;;;3.50;2.20;;;;;;;;;;5155283;27;20940;-70
2022/01/21 13:51:35;;;;;;;6.63;3.33;;;;;;;;;;5154960;27;20447;-71
2022/01/21 13:54:03;;;;;;;8.60;2.77;;;;;;;;;;5155436;27;20811;-70
2022/01/21 13:56:33;;;;;;;6.50;1.80;;;;;;;;;;5154986;27;20472;-70
2022/01/21 13:59:00;;;;;;;5.50;2.10;;;;;;;;;;5155063;27;20483;-71
2022/01/21 14:01:28;;;;;;;7.47;3.33;;;;;;;;;;5155183;27;20971;-71
2022/01/21 14:03:58;;;;;;;4.53;2.47;;;;;;;;;;5154829;27;20452;-71
2022/01/21 14:06:25;;;;;;;7.93;2.77;;;;;;;;;;5156394;27;20476;-70
2022/01/21 14:08:53;;;;;;;11.10;2.50;;;;;;;;;;5156137;27;20491;-69
2022/01/21 14:11:26;;;;;;;5.83;1.73;;;;;;;;;;5156310;27;20447;-69
2022/01/21 14:13:59;;;;;;;6.23;2.30;;;;;;;;;;5136814;27;20539;-69
2022/01/21 14:16:28;;;;;;;11.83;2.93;;;;;;;;;;5135298;27;21000;-70
2022/01/21 14:18:56;;;;;;;14.40;3.00;;;;;;;;;;5135495;27;20441;-69
2022/01/21 14:21:25;;;;;;;4.50;2.30;;;;;;;;;;5135615;27;20477;-68
2022/01/21 14:23:53;;;;;;;3.93;2.30;;;;;;;;;;5135469;27;20881;-69
2022/01/21 14:26:21;;;;;;;5.97;2.30;;;;;;;;;;5135011;27;20468;-70
2022/01/21 14:28:49;;;;;;;3.10;2.27;;;;;;;;;;5134993;27;20445;-70
2022/01/21 14:31:36;;;;;;;2.77;1.57;;;;;;;;;;5135040;27;20555;-69
2022/01/21 14:34:04;;;;;;;7.20;2.63;;;;;;;;;;5134809;27;20449;-70
2022/01/21 14:36:31;;;;;;;1.97;1.57;;;;;;;;;;5134976;27;20996;-69
2022/01/21 14:39:13;;;;;;;5.73;2.43;;;;;;;;;;5134826;27;20455;-70
2022/01/21 14:41:41;;;;;;;4.20;2.03;;;;;;;;;;5134870;27;20455;-70
2022/01/21 14:44:08;;;;;;;6.53;2.40;;;;;;;;;;5134784;27;20822;-69
2022/01/21 14:46:37;;;;;;;6.70;2.20;;;;;;;;;;5134640;27;20826;-70
2022/01/21 14:49:05;;;;;;;9.87;2.47;;;;;;;;;;5134719;27;20449;-70
2022/01/21 14:51:33;;;;;;;4.37;2.97;;;;;;;;;;5134634;27;20452;-70
2022/01/21 14:54:10;;;;;;;5.23;2.70;;;;;;;;;;5134515;27;20453;-69
2022/01/21 14:56:38;;;;;;;4.10;1.80;;;;;;;;;;5134479;27;20468;-70
2022/01/21 14:59:08;;;;;;;5.33;2.60;;;;;;;;;;5133958;27;20449;-70
2022/01/21 15:01:37;;;;;;;3.60;2.73;;;;;;;;;;5134269;27;20452;-71
2022/01/21 15:04:13;;;;;;;5.97;2.80;;;;;;;;;;5134344;27;20459;-69
2022/01/21 15:06:40;;;;;;;10.97;2.47;;;;;;;;;;5134309;27;20812;-70
2022/01/21 15:09:07;;;;;;;3.30;2.17;;;;;;;;;;5134378;27;20994;-70
2022/01/21 15:11:55;;;;;;;5.73;3.00;;;;;;;;;;5134151;27;20449;-70
2022/01/21 15:14:33;;;;;;;3.20;2.10;;;;;;;;;;5134146;27;20941;-71
2022/01/21 15:17:03;;;;;;;7.63;2.97;;;;;;;;;;5134055;27;20503;-70
2022/01/21 15:19:32;;;;;;;6.23;3.00;;;;;;;;;;5134073;27;20525;-69
2022/01/21 15:21:59;;;;;;;6.80;3.10;;;;;;;;;;5134172;27;20914;-70
2022/01/21 15:24:27;;;;;;;7.37;3.87;;;;;;;;;;5133721;27;20449;-71
2022/01/21 15:26:54;;;;;;;12.10;3.23;;;;;;;;;;5134221;27;20594;-71
2022/01/21 15:29:22;;;;;;;5.17;2.73;;;;;;;;;;5134378;27;20437;-70
2022/01/21 15:31:49;;;;;;;4.10;2.90;;;;;;;;;;5133774;27;20453;-71